createdAt,value
2022-10-01T00:00:09.128Z,93577.91
2022-10-01T00:01:34.340Z,93573.89
2022-10-01T00:02:38.576Z,93575.88
2022-10-01T00:03:42.482Z,93575.83
2022-10-01T00:04:45.520Z,93563.94
2022-10-01T00:05:59.225Z,93576.25
2022-10-01T00:07:04.788Z,93576.98
2022-10-01T00:08:09.890Z,93575.03
2022-10-01T00:09:13.126Z,93577.66
2022-10-01T00:10:16.618Z,93580.60
2022-10-01T00:11:24.111Z,93580.19
2022-10-01T00:12:27.316Z,93581.65
2022-10-01T00:13:30.639Z,93581.66
2022-10-01T00:14:33.889Z,93579.81
2022-10-01T00:15:41.065Z,93579.70
2022-10-01T00:16:44.140Z,93581.81
2022-10-01T00:17:47.656Z,93585.02
2022-10-01T00:18:51.047Z,93587.13
2022-10-01T00:19:54.154Z,93587.08
2022-10-01T00:20:57.335Z,93588.92
2022-10-01T00:22:00.714Z,93587.50
2022-10-01T00:23:03.770Z,93586.92
2022-10-01T00:24:07.216Z,93588.67
2022-10-01T00:25:10.443Z,93589.10
2022-10-01T00:26:25.815Z,93587.72
2022-10-01T00:27:29.380Z,93590.89
2022-10-01T00:28:32.796Z,93590.78
2022-10-01T00:29:36.809Z,93592.26
2022-10-01T00:30:46.418Z,93594.45
2022-10-01T00:31:49.802Z,93594.39
2022-10-01T00:32:56.022Z,93592.52
2022-10-01T00:34:02.806Z,93589.98
2022-10-01T00:35:11.013Z,93591.56
2022-10-01T00:36:14.002Z,93594.55
2022-10-01T00:37:18.355Z,93593.86
2022-10-01T00:38:21.335Z,93593.99
2022-10-01T00:39:24.577Z,93595.09
2022-10-01T00:40:29.988Z,93596.65
2022-10-01T00:41:36.442Z,93600.50
2022-10-01T00:42:40.002Z,93602.33
2022-10-01T00:43:45.226Z,93602.70
2022-10-01T00:44:49.541Z,93605.68
2022-10-01T00:45:55.813Z,93603.01
2022-10-01T00:47:03.159Z,93602.65
2022-10-01T00:48:10.365Z,93606.75
2022-10-01T00:49:13.352Z,93606.97
2022-10-01T00:50:20.587Z,93602.63
2022-10-01T00:51:25.664Z,93601.34
2022-10-01T00:52:31.368Z,93606.11
2022-10-01T00:53:34.569Z,93607.80
2022-10-01T00:54:41.546Z,93606.70
2022-10-01T00:55:46.804Z,93610.08
2022-10-01T00:56:51.867Z,93610.70
2022-10-01T00:57:55.661Z,93614.08
2022-10-01T00:58:59.316Z,93616.55
2022-10-01T01:00:04.917Z,93613.45
2022-10-01T01:01:08.158Z,93621.81
2022-10-01T01:02:11.463Z,93622.75
2022-10-01T01:03:15.040Z,93621.04
2022-10-01T01:04:18.245Z,93624.09
2022-10-01T01:05:21.589Z,93622.88
2022-10-01T01:06:25.052Z,93628.45
2022-10-01T01:07:29.855Z,93628.76
2022-10-01T01:08:35.560Z,93632.84
2022-10-01T01:09:42.355Z,93632.16
2022-10-01T01:11:02.847Z,93628.69
2022-10-01T01:12:12.446Z,93635.72
2022-10-01T01:13:25.265Z,93636.98
2022-10-01T01:14:39.616Z,93634.48
2022-10-01T01:15:47.461Z,93636.73
2022-10-01T01:16:53.844Z,93634.67
2022-10-01T01:18:15.327Z,93633.31
2022-10-01T01:19:38.090Z,93633.54
2022-10-01T01:21:00.235Z,93628.91
2022-10-01T01:22:06.191Z,93638.27
2022-10-01T01:23:15.205Z,93638.11
2022-10-01T01:24:30.754Z,93643.78
2022-10-01T01:26:01.193Z,93643.89
2022-10-01T01:27:23.001Z,93647.63
2022-10-01T01:28:31.892Z,93649.58
2022-10-01T01:29:41.416Z,93647.60
2022-10-01T01:30:45.375Z,93650.08
2022-10-01T01:31:52.876Z,93649.87
2022-10-01T01:33:03.578Z,93649.25
2022-10-01T01:34:12.656Z,93646.73
2022-10-01T01:35:19.273Z,93645.07
2022-10-01T01:36:37.264Z,93646.08
2022-10-01T01:37:43.264Z,93645.27
2022-10-01T01:38:49.716Z,93646.02
2022-10-01T01:39:54.918Z,93641.98
2022-10-01T01:41:03.931Z,93645.45
2022-10-01T01:42:10.411Z,93641.91
2022-10-01T01:43:22.435Z,93641.14
2022-10-01T01:44:28.854Z,93638.62
2022-10-01T01:45:34.140Z,93638.25
2022-10-01T01:46:40.356Z,93639.46
2022-10-01T01:47:44.320Z,93639.89
2022-10-01T01:48:51.406Z,93638.54
2022-10-01T01:49:54.680Z,93641.34
2022-10-01T01:51:10.043Z,93637.40
2022-10-01T01:52:16.140Z,93644.35
2022-10-01T01:53:30.575Z,93642.60
2022-10-01T01:54:35.899Z,93642.80
2022-10-01T01:55:39.610Z,93644.35
2022-10-01T01:56:42.706Z,93643.98
2022-10-01T01:57:46.037Z,93641.98
2022-10-01T01:58:49.390Z,93642.63
2022-10-01T01:59:56.306Z,93637.52
2022-10-01T02:01:06.249Z,93637.94
2022-10-01T02:02:15.297Z,93634.73
2022-10-01T02:03:22.925Z,93632.22
2022-10-01T02:04:47.245Z,93630.76
2022-10-01T02:05:56.036Z,93628.55
2022-10-01T02:07:17.821Z,93628.92
2022-10-01T02:08:28.197Z,93624.99
2022-10-01T02:09:35.725Z,93623.63
2022-10-01T02:10:38.820Z,93625.73
2022-10-01T02:11:50.296Z,93625.84
2022-10-01T02:12:56.245Z,93629.61
2022-10-01T02:14:02.081Z,93629.74
2022-10-01T02:15:08.401Z,93630.79
2022-10-01T02:16:29.526Z,93628.02
2022-10-01T02:17:36.890Z,93625.16
2022-10-01T02:18:40.835Z,93625.60
2022-10-01T02:19:57.304Z,93624.17
2022-10-01T02:21:08.232Z,93621.02
2022-10-01T02:22:13.185Z,93623.34
2022-10-01T02:23:19.560Z,93620.30
2022-10-01T02:24:38.261Z,93623.08
2022-10-01T02:25:46.960Z,93623.34
2022-10-01T02:26:52.690Z,93617.49
2022-10-01T02:28:00.715Z,93620.86
2022-10-01T02:29:07.341Z,93615.30
2022-10-01T02:30:11.670Z,93609.06
2022-10-01T02:31:18.200Z,93612.39
2022-10-01T02:32:22.192Z,93611.51
2022-10-01T02:33:29.188Z,93609.89
2022-10-01T02:34:33.130Z,93606.84
2022-10-01T02:35:37.476Z,93608.56
2022-10-01T02:36:42.313Z,93610.41
2022-10-01T02:37:47.910Z,93607.96
2022-10-01T02:38:52.266Z,93606.23
2022-10-01T02:39:56.710Z,93605.27
2022-10-01T02:41:01.637Z,93607.69
2022-10-01T02:42:06.192Z,93610.60
2022-10-01T02:43:13.896Z,93608.13
2022-10-01T02:44:23.081Z,93616.37
2022-10-01T02:45:26.791Z,93618.89
2022-10-01T02:46:30.116Z,93622.71
2022-10-01T02:47:37.046Z,93625.67
2022-10-01T02:48:40.876Z,93626.31
2022-10-01T02:49:44.450Z,93625.68
2022-10-01T02:50:52.201Z,93629.14
2022-10-01T02:51:59.382Z,93629.66
2022-10-01T02:53:07.491Z,93630.94
2022-10-01T02:54:16.412Z,93632.52
2022-10-01T02:55:24.365Z,93629.94
2022-10-01T02:56:49.080Z,93629.58
2022-10-01T02:57:52.776Z,93628.31
2022-10-01T02:58:56.035Z,93630.36
2022-10-01T03:00:04.496Z,93629.72
2022-10-01T03:01:07.822Z,93630.63
2022-10-01T03:02:11.436Z,93629.15
2022-10-01T03:03:14.656Z,93628.16
2022-10-01T03:04:19.394Z,93628.48
2022-10-01T03:05:25.777Z,93626.11
2022-10-01T03:06:28.960Z,93629.30
2022-10-01T03:07:34.843Z,93628.02
2022-10-01T03:08:37.842Z,93627.69
2022-10-01T03:09:40.886Z,93626.70
2022-10-01T03:10:46.768Z,93621.72
2022-10-01T03:11:50.435Z,93624.68
2022-10-01T03:12:53.481Z,93627.26
2022-10-01T03:13:57.235Z,93627.26
2022-10-01T03:15:01.148Z,93621.33
2022-10-01T03:16:04.377Z,93626.08
2022-10-01T03:17:07.726Z,93621.19
2022-10-01T03:18:10.861Z,93620.82
2022-10-01T03:19:13.853Z,93621.56
2022-10-01T03:20:19.867Z,93614.23
2022-10-01T03:21:25.570Z,93620.38
2022-10-01T03:22:28.945Z,93617.30
2022-10-01T03:23:36.359Z,93614.71
2022-10-01T03:24:39.571Z,93617.14
2022-10-01T03:25:42.610Z,93608.41
2022-10-01T03:26:46.070Z,93609.27
2022-10-01T03:27:49.955Z,93607.26
2022-10-01T03:28:53.201Z,93610.85
2022-10-01T03:29:56.367Z,93614.30
2022-10-01T03:31:06.401Z,93613.92
2022-10-01T03:32:09.681Z,93612.77
2022-10-01T03:33:12.785Z,93609.29
2022-10-01T03:34:16.087Z,93614.82
2022-10-01T03:35:19.101Z,93615.14
2022-10-01T03:36:22.246Z,93614.17
2022-10-01T03:37:25.590Z,93611.93
2022-10-01T03:38:28.731Z,93609.44
2022-10-01T03:39:32.071Z,93615.24
2022-10-01T03:40:39.143Z,93614.93
2022-10-01T03:41:42.245Z,93612.66
2022-10-01T03:42:45.285Z,93613.03
2022-10-01T03:43:48.467Z,93607.88
2022-10-01T03:44:52.262Z,93612.08
2022-10-01T03:45:56.126Z,93609.19
2022-10-01T03:46:59.316Z,93606.23
2022-10-01T03:48:05.076Z,93605.79
2022-10-01T03:49:17.482Z,93606.57
2022-10-01T03:50:27.949Z,93610.14
2022-10-01T03:51:31.988Z,93610.96
2022-10-01T03:52:35.600Z,93610.52
2022-10-01T03:53:38.791Z,93611.14
2022-10-01T03:54:42.235Z,93613.70
2022-10-01T03:55:45.290Z,93613.55
2022-10-01T03:56:49.071Z,93614.91
2022-10-01T03:57:52.365Z,93614.17
2022-10-01T03:58:55.607Z,93616.90
2022-10-01T03:59:59.536Z,93618.96
2022-10-01T04:01:06.079Z,93619.48
2022-10-01T04:02:09.239Z,93617.70
2022-10-01T04:03:13.129Z,93615.44
2022-10-01T04:04:16.227Z,93612.19
2022-10-01T04:05:19.247Z,93614.13
2022-10-01T04:06:23.770Z,93615.65
2022-10-01T04:07:26.932Z,93613.02
2022-10-01T04:08:30.112Z,93616.93
2022-10-01T04:09:35.201Z,93615.27
2022-10-01T04:10:38.429Z,93617.63
2022-10-01T04:11:41.462Z,93617.10
2022-10-01T04:12:44.496Z,93617.83
2022-10-01T04:13:47.764Z,93614.66
2022-10-01T04:14:51.082Z,93614.60
2022-10-01T04:15:54.329Z,93620.30
2022-10-01T04:16:57.467Z,93617.36
2022-10-01T04:18:02.502Z,93615.57
2022-10-01T04:19:05.893Z,93616.14
2022-10-01T04:20:09.040Z,93610.04
2022-10-01T04:21:15.711Z,93614.98
2022-10-01T04:22:18.796Z,93611.05
2022-10-01T04:23:22.792Z,93606.77
2022-10-01T04:24:25.963Z,93608.34
2022-10-01T04:25:29.657Z,93605.48
2022-10-01T04:26:32.939Z,93605.27
2022-10-01T04:27:36.030Z,93604.40
2022-10-01T04:28:39.307Z,93603.73
2022-10-01T04:29:42.467Z,93604.46
2022-10-01T04:30:46.166Z,93600.74
2022-10-01T04:31:49.345Z,93599.52
2022-10-01T04:32:52.571Z,93601.50
2022-10-01T04:33:57.468Z,93595.44
2022-10-01T04:35:00.921Z,93592.65
2022-10-01T04:36:04.534Z,93592.50
2022-10-01T04:37:07.615Z,93594.16
2022-10-01T04:38:15.354Z,93592.08
2022-10-01T04:39:18.460Z,93588.40
2022-10-01T04:40:21.528Z,93590.19
2022-10-01T04:41:25.701Z,93589.52
2022-10-01T04:42:28.798Z,93588.73
2022-10-01T04:43:32.030Z,93584.52
2022-10-01T04:44:37.733Z,93585.82
2022-10-01T04:45:40.817Z,93582.99
2022-10-01T04:46:44.216Z,93582.37
2022-10-01T04:47:51.210Z,93584.34
2022-10-01T04:48:54.275Z,93585.34
2022-10-01T04:49:57.375Z,93583.34
2022-10-01T04:51:00.555Z,93580.28
2022-10-01T04:52:04.458Z,93581.38
2022-10-01T04:53:07.686Z,93579.48
2022-10-01T04:54:10.696Z,93583.83
2022-10-01T04:55:14.635Z,93583.55
2022-10-01T04:56:17.733Z,93587.64
2022-10-01T04:57:23.502Z,93587.58
2022-10-01T04:58:27.088Z,93585.11
2022-10-01T04:59:30.588Z,93586.23
2022-10-01T05:00:33.817Z,93586.33
2022-10-01T05:01:37.432Z,93589.46
2022-10-01T05:02:41.024Z,93593.38
2022-10-01T05:03:44.250Z,93592.50
2022-10-01T05:04:48.188Z,93594.16
2022-10-01T05:05:51.590Z,93598.89
2022-10-01T05:06:54.917Z,93597.46
2022-10-01T05:07:57.970Z,93598.74
2022-10-01T05:09:01.658Z,93598.09
2022-10-01T05:10:14.936Z,93598.85
2022-10-01T05:11:18.482Z,93597.75
2022-10-01T05:12:24.563Z,93599.35
2022-10-01T05:13:30.503Z,93598.36
2022-10-01T05:14:33.879Z,93604.05
2022-10-01T05:15:37.197Z,93607.52
2022-10-01T05:16:40.325Z,93603.58
2022-10-01T05:17:43.405Z,93604.11
2022-10-01T05:18:46.450Z,93603.11
2022-10-01T05:19:52.291Z,93600.33
2022-10-01T05:20:58.369Z,93599.35
2022-10-01T05:22:01.552Z,93598.96
2022-10-01T05:23:05.105Z,93596.07
2022-10-01T05:24:10.157Z,93592.85
2022-10-01T05:25:13.369Z,93592.02
2022-10-01T05:26:16.500Z,93591.64
2022-10-01T05:27:19.964Z,93587.72
2022-10-01T05:28:23.101Z,93589.14
2022-10-01T05:29:26.435Z,93588.77
2022-10-01T05:30:29.474Z,93593.69
2022-10-01T05:31:34.069Z,93597.82
2022-10-01T05:32:37.974Z,93602.11
2022-10-01T05:33:41.041Z,93598.88
2022-10-01T05:34:44.088Z,93598.77
2022-10-01T05:35:47.112Z,93594.98
2022-10-01T05:36:50.400Z,93591.73
2022-10-01T05:37:56.831Z,93591.52
2022-10-01T05:38:59.902Z,93591.70
2022-10-01T05:40:03.976Z,93593.64
2022-10-01T05:41:07.106Z,93592.40
2022-10-01T05:42:10.115Z,93590.03
2022-10-01T05:43:13.905Z,93591.05
2022-10-01T05:44:17.148Z,93594.96
2022-10-01T05:45:21.161Z,93595.02
2022-10-01T05:46:24.769Z,93601.21
2022-10-01T05:47:27.839Z,93603.55
2022-10-01T05:48:34.826Z,93599.02
2022-10-01T05:49:39.803Z,93596.96
2022-10-01T05:50:44.279Z,93594.34
2022-10-01T05:51:47.387Z,93593.36
2022-10-01T05:52:54.908Z,93595.56
2022-10-01T05:54:01.576Z,93594.55
2022-10-01T05:55:04.921Z,93593.88
2022-10-01T05:56:08.620Z,93597.50
2022-10-01T05:57:11.910Z,93591.21
2022-10-01T05:58:15.246Z,93589.85
2022-10-01T05:59:22.553Z,93588.15
2022-10-01T06:00:31.529Z,93589.96
2022-10-01T06:01:37.933Z,93584.88
2022-10-01T06:02:41.325Z,93586.31
2022-10-01T06:03:57.758Z,93585.31
2022-10-01T06:05:00.914Z,93585.06
2022-10-01T06:06:09.869Z,93576.73
2022-10-01T06:07:14.217Z,93582.19
2022-10-01T06:08:18.282Z,93580.84
2022-10-01T06:09:24.122Z,93579.23
2022-10-01T06:10:30.313Z,93575.27
2022-10-01T06:11:36.702Z,93586.98
2022-10-01T06:12:41.206Z,93588.86
2022-10-01T06:13:47.004Z,93588.92
2022-10-01T06:14:50.285Z,93580.84
2022-10-01T06:15:54.215Z,93586.06
2022-10-01T06:16:57.381Z,93578.97
2022-10-01T06:18:10.054Z,93580.48
2022-10-01T06:19:24.956Z,93576.46
2022-10-01T06:20:28.469Z,93572.81
2022-10-01T06:21:32.252Z,93576.08
2022-10-01T06:22:37.566Z,93572.77
2022-10-01T06:23:40.642Z,93569.37
2022-10-01T06:24:46.752Z,93571.87
2022-10-01T06:25:49.989Z,93572.25
2022-10-01T06:26:53.226Z,93570.29
2022-10-01T06:27:58.323Z,93576.92
2022-10-01T06:29:03.249Z,93577.85
2022-10-01T06:30:07.022Z,93575.54
2022-10-01T06:31:10.589Z,93579.83
2022-10-01T06:32:18.855Z,93578.35
2022-10-01T06:33:22.154Z,93573.73
2022-10-01T06:34:26.690Z,93574.81
2022-10-01T06:35:30.579Z,93574.21
2022-10-01T06:36:34.398Z,93571.61
2022-10-01T06:37:38.694Z,93571.68
2022-10-01T06:38:43.166Z,93573.44
2022-10-01T06:39:46.261Z,93573.70
2022-10-01T06:40:59.632Z,93577.27
2022-10-01T06:42:03.251Z,93575.45
2022-10-01T06:43:09.717Z,93575.48
2022-10-01T06:44:15.346Z,93577.73
2022-10-01T06:45:18.589Z,93575.13
2022-10-01T06:46:21.725Z,93575.21
2022-10-01T06:47:24.979Z,93572.97
2022-10-01T06:48:29.957Z,93569.36
2022-10-01T06:49:35.850Z,93569.08
2022-10-01T06:50:38.990Z,93567.55
2022-10-01T06:52:00.753Z,93570.38
2022-10-01T06:53:03.938Z,93564.83
2022-10-01T06:54:09.244Z,93563.90
2022-10-01T06:55:16.459Z,93568.55
2022-10-01T06:56:23.344Z,93562.38
2022-10-01T06:57:26.439Z,93568.50
2022-10-01T06:58:29.827Z,93571.11
2022-10-01T06:59:36.494Z,93572.26
2022-10-01T07:00:40.032Z,93573.31
2022-10-01T07:01:56.051Z,93573.55
2022-10-01T07:03:00.853Z,93571.79
2022-10-01T07:04:04.011Z,93572.28
2022-10-01T07:05:12.635Z,93579.66
2022-10-01T07:06:18.207Z,93574.77
2022-10-01T07:07:21.599Z,93575.88
2022-10-01T07:08:25.558Z,93578.36
2022-10-01T07:09:31.469Z,93574.81
2022-10-01T07:10:37.984Z,93575.97
2022-10-01T07:11:44.463Z,93575.71
2022-10-01T07:12:51.327Z,93573.18
2022-10-01T07:13:57.362Z,93577.55
2022-10-01T07:15:01.878Z,93578.89
2022-10-01T07:16:05.154Z,93578.15
2022-10-01T07:17:12.227Z,93579.19
2022-10-01T07:18:17.343Z,93577.83
2022-10-01T07:19:20.436Z,93581.38
2022-10-01T07:20:23.608Z,93578.27
2022-10-01T07:21:26.828Z,93580.34
2022-10-01T07:22:29.834Z,93586.83
2022-10-01T07:23:33.883Z,93587.92
2022-10-01T07:24:39.199Z,93587.22
2022-10-01T07:25:43.266Z,93587.73
2022-10-01T07:26:48.151Z,93589.52
2022-10-01T07:28:01.415Z,93580.92
2022-10-01T07:29:04.910Z,93590.08
2022-10-01T07:30:08.450Z,93590.80
2022-10-01T07:31:15.018Z,93589.07
2022-10-01T07:32:26.169Z,93591.51
2022-10-01T07:34:06.252Z,93588.08
2022-10-01T07:35:22.183Z,93588.70
2022-10-01T07:36:54.195Z,93588.04
2022-10-01T07:38:03.831Z,93589.19
2022-10-01T07:39:07.076Z,93587.67
2022-10-01T07:40:12.315Z,93587.88
2022-10-01T07:41:17.557Z,93586.65
2022-10-01T07:42:21.805Z,93584.27
2022-10-01T07:43:24.886Z,93584.11
2022-10-01T07:44:31.790Z,93581.83
2022-10-01T07:45:41.105Z,93583.11
2022-10-01T07:46:44.333Z,93577.63
2022-10-01T07:47:57.449Z,93578.48
2022-10-01T07:49:00.455Z,93579.34
2022-10-01T07:50:04.035Z,93579.39
2022-10-01T07:51:07.195Z,93580.97
2022-10-01T07:52:13.325Z,93585.33
2022-10-01T07:53:17.238Z,93583.84
2022-10-01T07:54:21.904Z,93587.51
2022-10-01T07:55:28.957Z,93590.11
2022-10-01T07:56:32.152Z,93582.32
2022-10-01T07:57:35.320Z,93581.33
2022-10-01T07:58:38.544Z,93581.80
2022-10-01T07:59:41.854Z,93584.24
2022-10-01T08:00:45.157Z,93580.95
2022-10-01T08:01:49.105Z,93579.78
2022-10-01T08:02:53.804Z,93580.98
2022-10-01T08:03:57.521Z,93581.42
2022-10-01T08:05:19.223Z,93584.35
2022-10-01T08:06:25.625Z,93577.59
2022-10-01T08:07:31.513Z,93586.02
2022-10-01T08:08:34.655Z,93581.83
2022-10-01T08:09:38.562Z,93587.44
2022-10-01T08:10:42.317Z,93586.69
2022-10-01T08:11:45.806Z,93589.13
2022-10-01T08:12:48.930Z,93588.42
2022-10-01T08:13:52.959Z,93589.17
2022-10-01T08:14:56.169Z,93586.23
2022-10-01T08:16:02.536Z,93588.50
2022-10-01T08:17:05.681Z,93581.06
2022-10-01T08:18:08.974Z,93580.16
2022-10-01T08:19:13.205Z,93579.64
2022-10-01T08:20:16.996Z,93577.70
2022-10-01T08:21:20.159Z,93581.79
2022-10-01T08:22:23.180Z,93580.11
2022-10-01T08:23:26.224Z,93581.63
2022-10-01T08:24:29.491Z,93580.73
2022-10-01T08:25:33.406Z,93578.33
2022-10-01T08:26:36.748Z,93583.70
2022-10-01T08:27:39.717Z,93579.59
2022-10-01T08:28:42.786Z,93573.77
2022-10-01T08:29:45.800Z,93579.23
2022-10-01T08:30:48.999Z,93582.48
2022-10-01T08:31:52.607Z,93582.21
2022-10-01T08:32:58.259Z,93578.54
2022-10-01T08:34:01.417Z,93577.43
2022-10-01T08:35:05.185Z,93585.05
2022-10-01T08:36:08.705Z,93581.38
2022-10-01T08:37:11.783Z,93580.46
2022-10-01T08:38:36.098Z,93580.03
2022-10-01T08:39:42.220Z,93574.86
2022-10-01T08:40:51.848Z,93576.36
2022-10-01T08:42:00.925Z,93573.31
2022-10-01T08:43:07.698Z,93578.95
2022-10-01T08:44:17.599Z,93573.67
2022-10-01T08:45:23.791Z,93574.38
2022-10-01T08:46:29.849Z,93576.72
2022-10-01T08:47:42.778Z,93573.66
2022-10-01T08:48:58.802Z,93574.45
2022-10-01T08:50:20.817Z,93573.20
2022-10-01T08:51:29.887Z,93572.61
2022-10-01T08:52:36.983Z,93575.56
2022-10-01T08:53:46.293Z,93580.37
2022-10-01T08:54:58.238Z,93569.05
2022-10-01T08:56:02.923Z,93574.64
2022-10-01T08:57:11.981Z,93577.55
2022-10-01T08:58:23.881Z,93573.90
2022-10-01T08:59:36.027Z,93577.41
2022-10-01T09:00:41.926Z,93578.44
2022-10-01T09:01:45.132Z,93572.95
2022-10-01T09:02:53.105Z,93575.15
2022-10-01T09:03:58.712Z,93572.18
2022-10-01T09:05:06.367Z,93574.34
2022-10-01T09:06:09.720Z,93572.73
2022-10-01T09:07:30.875Z,93572.83
2022-10-01T09:08:58.397Z,93576.42
2022-10-01T09:10:10.134Z,93578.36
2022-10-01T09:11:32.156Z,93574.82
2022-10-01T09:12:44.865Z,93572.92
2022-10-01T09:14:04.318Z,93577.41
2022-10-01T09:15:26.252Z,93573.52
2022-10-01T09:16:36.113Z,93574.74
2022-10-01T09:17:58.360Z,93572.75
2022-10-01T09:19:01.736Z,93574.21
2022-10-01T09:20:05.205Z,93573.34
2022-10-01T09:21:17.147Z,93574.84
2022-10-01T09:22:26.422Z,93564.71
2022-10-01T09:23:30.752Z,93566.73
2022-10-01T09:24:53.380Z,93560.61
2022-10-01T09:26:00.188Z,93559.79
2022-10-01T09:27:10.597Z,93557.08
2022-10-01T09:28:21.112Z,93556.76
2022-10-01T09:29:27.735Z,93555.64
2022-10-01T09:30:32.242Z,93557.64
2022-10-01T09:31:40.099Z,93554.96
2022-10-01T09:32:50.857Z,93554.56
2022-10-01T09:34:02.342Z,93556.59
2022-10-01T09:35:13.545Z,93556.73
2022-10-01T09:36:22.807Z,93555.29
2022-10-01T09:37:39.611Z,93558.15
2022-10-01T09:38:44.235Z,93550.09
2022-10-01T09:40:05.212Z,93554.98
2022-10-01T09:41:11.895Z,93561.55
2022-10-01T09:42:14.962Z,93556.22
2022-10-01T09:43:22.140Z,93556.25
2022-10-01T09:44:34.204Z,93550.29
2022-10-01T09:45:37.949Z,93549.29
2022-10-01T09:46:41.446Z,93548.65
2022-10-01T09:47:47.511Z,93550.98
2022-10-01T09:48:57.796Z,93546.37
2022-10-01T09:50:03.821Z,93547.16
2022-10-01T09:51:15.603Z,93542.80
2022-10-01T09:52:18.946Z,93544.80
2022-10-01T09:53:25.415Z,93550.23
2022-10-01T09:54:28.500Z,93554.48
2022-10-01T09:55:39.107Z,93549.33
2022-10-01T09:56:44.776Z,93551.41
2022-10-01T09:58:00.591Z,93546.26
2022-10-01T09:59:08.982Z,93553.86
2022-10-01T10:00:18.189Z,93549.21
2022-10-01T10:01:24.276Z,93554.20
2022-10-01T10:02:40.781Z,93548.72
2022-10-01T10:03:56.595Z,93549.50
2022-10-01T10:05:03.887Z,93550.84
2022-10-01T10:06:07.051Z,93553.64
2022-10-01T10:07:15.836Z,93548.52
2022-10-01T10:08:32.314Z,93545.52
2022-10-01T10:09:36.118Z,93542.63
2022-10-01T10:10:40.428Z,93545.70
2022-10-01T10:11:44.588Z,93548.25
2022-10-01T10:12:48.928Z,93549.38
2022-10-01T10:13:53.465Z,93544.27
2022-10-01T10:14:59.129Z,93542.73
2022-10-01T10:16:08.695Z,93544.88
2022-10-01T10:17:17.030Z,93543.82
2022-10-01T10:18:49.826Z,93541.44
2022-10-01T10:19:53.171Z,93544.42
2022-10-01T10:20:57.136Z,93542.27
2022-10-01T10:22:11.919Z,93537.88
2022-10-01T10:23:18.497Z,93535.11
2022-10-01T10:24:24.490Z,93532.14
2022-10-01T10:25:27.729Z,93533.47
2022-10-01T10:26:35.793Z,93525.20
2022-10-01T10:27:39.097Z,93530.33
2022-10-01T10:28:46.610Z,93527.90
2022-10-01T10:30:09.124Z,93519.98
2022-10-01T10:31:17.392Z,93525.89
2022-10-01T10:32:29.913Z,93523.17
2022-10-01T10:33:35.059Z,93522.44
2022-10-01T10:35:12.996Z,93528.81
2022-10-01T10:36:48.679Z,93522.34
2022-10-01T10:37:58.860Z,93516.64
2022-10-01T10:39:03.491Z,93522.48
2022-10-01T10:40:08.393Z,93525.11
2022-10-01T10:41:16.945Z,93524.59
2022-10-01T10:42:22.761Z,93526.05
2022-10-01T10:43:29.311Z,93528.05
2022-10-01T10:44:39.042Z,93528.39
2022-10-01T10:45:44.048Z,93527.34
2022-10-01T10:46:48.009Z,93530.41
2022-10-01T10:47:53.796Z,93524.98
2022-10-01T10:49:00.624Z,93529.67
2022-10-01T10:50:05.555Z,93527.27
2022-10-01T10:51:10.724Z,93526.78
2022-10-01T10:52:20.121Z,93525.19
2022-10-01T10:53:24.715Z,93526.94
2022-10-01T10:54:40.785Z,93528.14
2022-10-01T10:55:53.687Z,93512.53
2022-10-01T10:57:01.031Z,93522.71
2022-10-01T10:58:15.127Z,93522.59
2022-10-01T10:59:18.665Z,93520.94
2022-10-01T11:00:25.799Z,93522.39
2022-10-01T11:01:29.868Z,93519.45
2022-10-01T11:02:37.681Z,93513.30
2022-10-01T11:03:48.482Z,93513.48
2022-10-01T11:04:53.200Z,93512.52
2022-10-01T11:05:59.351Z,93508.89
2022-10-01T11:07:03.113Z,93506.52
2022-10-01T11:08:07.713Z,93510.52
2022-10-01T11:09:11.048Z,93510.73
2022-10-01T11:10:23.139Z,93513.11
2022-10-01T11:11:33.830Z,93505.91
2022-10-01T11:12:56.848Z,93504.05
2022-10-01T11:14:05.853Z,93502.38
2022-10-01T11:15:30.215Z,93495.38
2022-10-01T11:16:42.842Z,93492.41
2022-10-01T11:17:48.898Z,93491.86
2022-10-01T11:18:58.776Z,93483.02
2022-10-01T11:20:20.709Z,93493.15
2022-10-01T11:21:33.352Z,93487.23
2022-10-01T11:22:53.830Z,93487.90
2022-10-01T11:24:06.160Z,93486.28
2022-10-01T11:25:24.618Z,93485.23
2022-10-01T11:26:35.567Z,93483.14
2022-10-01T11:27:42.974Z,93487.58
2022-10-01T11:28:58.555Z,93479.09
2022-10-01T11:30:13.921Z,93482.42
2022-10-01T11:31:16.992Z,93475.17
2022-10-01T11:32:34.222Z,93471.85
2022-10-01T11:33:37.262Z,93471.85
2022-10-01T11:34:54.101Z,93467.80
2022-10-01T11:36:16.133Z,93469.30
2022-10-01T11:37:31.201Z,93460.73
2022-10-01T11:38:42.012Z,93463.48
2022-10-01T11:39:47.918Z,93461.69
2022-10-01T11:41:00.368Z,93457.80
2022-10-01T11:42:06.779Z,93459.30
2022-10-01T11:43:25.653Z,93462.75
2022-10-01T11:44:33.825Z,93454.02
2022-10-01T11:45:40.646Z,93456.34
2022-10-01T11:46:51.326Z,93455.05
2022-10-01T11:47:58.028Z,93451.48
2022-10-01T11:49:03.418Z,93452.38
2022-10-01T11:50:17.634Z,93448.98
2022-10-01T11:51:25.570Z,93448.33
2022-10-01T11:52:38.913Z,93447.02
2022-10-01T11:53:46.380Z,93447.96
2022-10-01T11:54:56.061Z,93453.48
2022-10-01T11:56:26.756Z,93440.33
2022-10-01T11:57:48.542Z,93451.75
2022-10-01T11:59:10.886Z,93449.89
2022-10-01T12:00:14.601Z,93452.36
2022-10-01T12:01:23.610Z,93450.75
2022-10-01T12:02:45.475Z,93448.52
2022-10-01T12:03:54.846Z,93448.03
2022-10-01T12:04:58.419Z,93448.66
2022-10-01T12:06:02.147Z,93453.14
2022-10-01T12:07:14.481Z,93450.86
2022-10-01T12:08:25.896Z,93452.11
2022-10-01T12:09:47.467Z,93451.63
2022-10-01T12:10:50.455Z,93454.48
2022-10-01T12:11:59.191Z,93452.61
2022-10-01T12:13:07.794Z,93461.98
2022-10-01T12:14:12.807Z,93455.53
2022-10-01T12:15:19.447Z,93457.27
2022-10-01T12:16:43.357Z,93455.29
2022-10-01T12:17:53.144Z,93451.95
2022-10-01T12:19:16.761Z,93454.16
2022-10-01T12:20:52.531Z,93450.91
2022-10-01T12:21:55.572Z,93453.58
2022-10-01T12:23:01.771Z,93453.90
2022-10-01T12:24:13.282Z,93450.05
2022-10-01T12:25:16.454Z,93453.54
2022-10-01T12:26:45.775Z,93451.81
2022-10-01T12:28:00.556Z,93451.32
2022-10-01T12:29:09.473Z,93445.88
2022-10-01T12:30:17.880Z,93448.02
2022-10-01T12:31:28.490Z,93445.58
2022-10-01T12:32:32.867Z,93441.52
2022-10-01T12:33:47.436Z,93440.91
2022-10-01T12:34:57.204Z,93437.77
2022-10-01T12:36:26.624Z,93433.98
2022-10-01T12:37:39.584Z,93434.55
2022-10-01T12:39:01.510Z,93428.10
2022-10-01T12:40:10.489Z,93434.55
2022-10-01T12:41:19.562Z,93437.13
2022-10-01T12:42:34.813Z,93432.71
2022-10-01T12:43:40.697Z,93435.19
2022-10-01T12:44:53.499Z,93443.19
2022-10-01T12:46:03.911Z,93438.58
2022-10-01T12:47:15.217Z,93434.71
2022-10-01T12:48:21.075Z,93435.23
2022-10-01T12:49:41.831Z,93437.30
2022-10-01T12:51:08.128Z,93441.65
2022-10-01T12:52:34.512Z,93446.27
2022-10-01T12:53:37.640Z,93444.98
2022-10-01T12:54:43.777Z,93445.75
2022-10-01T12:56:02.113Z,93434.80
2022-10-01T12:57:14.017Z,93443.52
2022-10-01T12:58:17.471Z,93459.33
2022-10-01T12:59:44.590Z,93458.98
2022-10-01T13:00:55.092Z,93454.27
2022-10-01T13:02:01.110Z,93450.41
2022-10-01T13:03:37.624Z,93469.51
2022-10-01T13:04:43.731Z,93456.40
2022-10-01T13:05:46.715Z,93455.02
2022-10-01T13:07:08.171Z,93469.08
2022-10-01T13:08:12.010Z,93469.16
2022-10-01T13:09:35.217Z,93472.05
2022-10-01T13:10:41.063Z,93466.66
2022-10-01T13:11:44.476Z,93469.75